San Juan, PR

11:41 PM AST on July 04, 2015 (GMT -0400)
San Ignacio | | Change Station
CLOSE
Current Station
Personal Weather Station
Location: San Juan, PR
Elevation: 171 ft
Nearby Weather Stations

Elev 171 ft 18.38 °N, 66.07 °W | Updated 9 seconds ago

Scattered Clouds
Scattered Clouds
81.5 °F
Feels Like 90 °F
N
8.7
Wind Variable Wind from SE
Gusts 12.1 mph

Today
High -- | Low -- °F
--% Chance of Precip.
Yesterday
High -- | Low -- °F
Precip. -- in
5:52 AM 7:04 PM
Waning Gibbous, 88% visible
Pressure 30.11 in
Visibility 10.0 miles
Clouds Few 2400 ft
Scattered Clouds 3300 ft
Scattered Clouds 4600 ft
Heat Index 90 °F
Dew Point 79 °F
Humidity 91%
Rainfall in
Snow Depth Not available.
UV 0 out of 12
Pollen Not available.
Air Quality Not available.
Flu Activity Not available.
METAR TJSJ 050256Z 08014KT 10SM FEW024 SCT033 SCT046 28/24 A3011 RMK AO2 SLP196 T02780239 51006

More Conditions Fewer Conditions

Pressure 30.11 in
Visibility 10.0 miles
Clouds Few 2400 ft
Scattered Clouds 3300 ft
Scattered Clouds 4600 ft
Heat Index 90 °F
Dew Point 79 °F
Humidity 91%
Rainfall in
Snow Depth Not available.
UV 0 out of 12
Pollen Not available.
Air Quality Not available.
Flu Activity Not available.
METAR TJSJ 050256Z 08014KT 10SM FEW024 SCT033 SCT046 28/24 A3011 RMK AO2 SLP196 T02780239 51006

More Conditions Fewer Conditions

10-Day Weather Forecast

×

Almanac

Astronomy

Jul. 04, 2015 Rise Set
Actual Time
Civil Twilight
Nautical Twilight
Astronomical Twilight
Moon
Length of Visible Light
Length of Day
Tomorrow will be .
, % of the Moon is Illuminated

Today's Extremes

State Highs State Lows

Community

WunderPhotos

Upload Photos

1,835,193 photos uploaded!

WunderBlogs® & News

Nearby

Air Quality

  Air Quality AQ Index Pollutant
Not available.

Snow Depth

Station Depth Elevation

Earthquake Activity

City Distance Mag. Time & Date
Minimum magnitude displayed is 2.5.

Coastal Water Temperatures

Place Temperature

Stations

Nearby Weather Stations

Station Location Temp. Windchill Dew Point Humidity Wind Precip. Elev Updated Type